Time;durP1;ratioP1;P1;durP2;ratioP2;P2;SDS_P1;SDS_P2;PMS_P1;PMS_P2;Temp;Humidity;BMP_temperature;BMP_pressure;BME280_temperature;BME280_humidity;BME280_pressure;Samples;Min_cycle;Max_cycle;Signal;HPM_P1;HPM_P2
2022/05/25 09:20:31;;;;;;;2.15;0.65;;;;;;;19.85;39.18;96601.63;2092896;27;20549;-62
2022/05/25 09:22:01;;;;;;;2.55;0.98;;;;;;;20.63;38.37;96603.91;2085005;28;20228;-63
2022/05/25 09:23:03;;;;;;;1.00;0.70;;;;;;;20.88;38.84;96603.50;2072065;28;20565;-63
2022/05/25 09:24:11;;;;;;;3.63;0.90;;;;;;;20.62;37.65;96602.22;2072595;28;20206;-63
2022/05/25 09:25:14;;;;;;;7.03;0.85;;;;;;;20.94;38.55;96598.63;2073208;28;20200;-63
2022/05/25 09:28:56;;;;;;;3.20;0.70;;;;;;;20.96;37.34;96605.50;2085085;28;20569;-63
2022/05/25 09:34:51;;;;;;;5.78;1.27;;;;;;;20.51;35.63;96619.09;2086754;27;20583;-63
2022/05/25 09:36:50;;;;;;;2.97;1.00;;;;;;;21.07;35.70;96622.31;2086431;27;20573;-61
2022/05/25 09:37:57;;;;;;;4.88;1.20;;;;;;;21.29;35.28;96615.91;2078369;28;20201;-62
2022/05/25 09:38:58;;;;;;;1.67;0.63;;;;;;;21.65;35.41;96619.78;2078788;28;20197;-62
2022/05/25 09:40:07;;;;;;;1.30;0.65;;;;;;;20.96;34.33;96604.66;2078954;28;20828;-62
2022/05/25 09:41:13;;;;;;;2.97;0.75;;;;;;;21.44;33.48;96619.03;2077978;28;20200;-62
2022/05/25 09:49:48;;;;;;;1.00;0.60;;;;;;;21.41;36.52;96611.31;2087038;28;20578;-63
2022/05/25 09:50:54;;;;;;;1.20;0.60;;;;;;;21.47;35.15;96616.94;2082604;28;20699;-63
2022/05/25 09:52:02;;;;;;;1.42;0.70;;;;;;;21.86;35.05;96618.81;2075928;28;20601;-63
2022/05/25 09:59:13;;;;;;;6.47;1.08;;;;;;;21.18;33.85;96625.69;2108435;27;20588;-63
2022/05/25 10:00:21;;;;;;;5.63;0.77;;;;;;;21.41;34.68;96616.63;2105334;28;20220;-62
2022/05/25 10:01:24;;;;;;;1.13;0.73;;;;;;;21.65;33.53;96624.28;2095998;28;20204;-63
2022/05/25 10:02:34;;;;;;;3.13;0.70;;;;;;;21.84;34.52;96626.13;2090799;28;20299;-64
2022/05/25 10:03:40;;;;;;;1.75;0.70;;;;;;;22.12;34.95;96619.09;2089690;28;20206;-67
2022/05/25 10:04:51;;;;;;;12.15;1.27;;;;;;;21.93;35.29;96619.94;2083819;28;20674;-67
2022/05/25 10:05:58;;;;;;;2.75;0.70;;;;;;;21.80;34.89;96627.34;2088092;28;20260;-65
2022/05/25 10:07:00;;;;;;;1.48;0.80;;;;;;;22.25;34.36;96634.75;2091747;28;20251;-66
2022/05/25 10:08:23;;;;;;;2.42;0.70;;;;;;;22.25;35.55;96632.09;2107797;28;20674;-66
2022/05/25 10:09:27;;;;;;;3.25;0.73;;;;;;;22.60;35.00;96621.84;2094973;28;20595;-66
2022/05/25 10:10:46;;;;;;;3.28;0.75;;;;;;;23.14;33.79;96636.19;2088701;28;20205;-66
2022/05/25 10:11:51;;;;;;;2.72;0.75;;;;;;;22.55;33.99;96616.09;2087963;28;20228;-66
2022/05/25 10:13:00;;;;;;;1.90;0.80;;;;;;;22.47;33.37;96622.16;2088442;28;20211;-66
2022/05/25 10:14:25;;;;;;;1.10;0.80;;;;;;;22.11;33.57;96627.22;2090177;28;20229;-66
2022/05/25 10:15:34;;;;;;;3.92;0.80;;;;;;;21.76;34.81;96625.94;2075913;28;20200;-66
2022/05/25 10:16:36;;;;;;;4.25;0.90;;;;;;;21.70;35.70;96630.03;2089809;28;20220;-66
2022/05/25 10:17:46;;;;;;;1.40;0.80;;;;;;;21.41;34.41;96627.25;2090630;28;20208;-63
2022/05/25 10:18:48;;;;;;;1.58;0.80;;;;;;;21.32;34.42;96629.78;2084715;28;20240;-65
2022/05/25 10:19:54;;;;;;;1.45;0.60;;;;;;;21.90;33.73;96627.34;2086765;28;20197;-64
2022/05/25 10:20:56;;;;;;;3.63;0.70;;;;;;;22.10;33.90;96628.19;2082528;28;20205;-63
2022/05/25 10:21:59;;;;;;;14.65;1.15;;;;;;;23.02;33.23;96624.09;2089666;28;20848;-63
2022/05/25 10:23:07;;;;;;;1.75;0.95;;;;;;;23.19;32.71;96632.31;2089664;28;20635;-63
2022/05/25 10:24:40;;;;;;;2.05;0.70;;;;;;;23.15;32.94;96635.25;2087953;28;20201;-63
2022/05/25 10:25:47;;;;;;;1.25;0.70;;;;;;;22.83;31.29;96627.66;2088856;28;20300;-65
2022/05/25 10:26:52;;;;;;;2.95;0.90;;;;;;;22.39;32.55;96616.72;2083753;28;20228;-65
2022/05/25 10:27:56;;;;;;;1.67;0.70;;;;;;;22.63;33.60;96619.72;2090845;28;20204;-65
2022/05/25 10:29:06;;;;;;;2.33;0.80;;;;;;;22.17;34.12;96630.16;2092377;28;20203;-65
2022/05/25 10:36:56;;;;;;;3.08;0.80;;;;;;;22.78;34.21;96625.44;2064183;28;20717;-64
2022/05/25 10:37:59;;;;;;;1.00;0.70;;;;;;;22.48;33.74;96626.50;2064258;28;20206;-64
2022/05/25 10:39:15;;;;;;;2.25;0.75;;;;;;;22.90;34.28;96622.59;2063243;28;20214;-62
2022/05/25 10:40:22;;;;;;;7.22;0.88;;;;;;;23.33;34.10;96636.31;2066503;28;20198;-65
2022/05/25 10:41:41;;;;;;;2.35;0.80;;;;;;;23.22;32.68;96626.66;2065704;28;20198;-65
2022/05/25 10:42:46;;;;;;;1.15;0.70;;;;;;;23.83;32.24;96624.31;2080668;28;20337;-66
2022/05/25 10:44:02;;;;;;;7.82;0.90;;;;;;;23.70;31.69;96624.69;2085041;28;20208;-66
2022/05/25 10:45:07;;;;;;;1.35;0.60;;;;;;;23.85;31.45;96625.00;2090355;28;20203;-65
2022/05/25 10:46:08;;;;;;;1.83;0.90;;;;;;;23.81;30.92;96621.81;2089270;28;20197;-65
2022/05/25 10:47:24;;;;;;;3.63;0.63;;;;;;;23.92;31.48;96618.94;2087162;28;20308;-65
2022/05/25 10:48:41;;;;;;;1.70;0.60;;;;;;;23.99;31.71;96615.69;2087974;28;20197;-65
2022/05/25 10:49:43;;;;;;;3.20;1.05;;;;;;;23.85;31.75;96615.19;2085886;28;20535;-65
2022/05/25 10:51:08;;;;;;;1.73;0.70;;;;;;;23.26;32.68;96610.25;2093269;28;20730;-66
2022/05/25 10:52:49;;;;;;;6.03;0.90;;;;;;;22.94;32.83;96618.63;2092562;28;20683;-65
2022/05/25 10:55:30;;;;;;;1.20;0.70;;;;;;;22.91;32.65;96621.59;2086458;28;20197;-65
2022/05/25 10:56:44;;;;;;;0.90;0.65;;;;;;;22.70;32.89;96619.97;2086848;28;20232;-65
2022/05/25 10:58:15;;;;;;;3.60;0.65;;;;;;;22.40;33.78;96629.88;2086597;28;20225;-65
2022/05/25 10:59:32;;;;;;;3.05;0.95;;;;;;;22.88;33.01;96622.75;2088160;28;20213;-65
2022/05/25 11:00:34;;;;;;;1.10;0.70;;;;;;;;;;2089563;28;20201;-65
2022/05/25 11:01:36;;;;;;;1.88;0.70;;;;;;;23.57;32.09;96627.75;2088601;28;20244;-65
2022/05/25 11:03:02;;;;;;;1.40;0.70;;;;;;;23.59;32.17;96625.75;2088338;28;20197;-65
2022/05/25 11:04:19;;;;;;;2.85;0.82;;;;;;;24.02;31.38;96626.84;2090708;28;20254;-65
2022/05/25 11:05:57;;;;;;;1.48;1.00;;;;;;;24.21;31.33;96623.16;2090384;28;20192;-65
2022/05/25 11:07:05;;;;;;;0.80;0.60;;;;;;;23.92;30.76;96624.28;2090304;28;20223;-66
2022/05/25 11:08:34;;;;;;;2.10;0.70;;;;;;;23.31;30.79;96626.63;2087526;28;20640;-65
2022/05/25 11:09:38;;;;;;;5.25;0.80;;;;;;;23.78;30.64;96627.44;2087933;28;20209;-65
2022/05/25 11:10:49;;;;;;;1.35;0.70;;;;;;;23.13;31.61;96621.22;2085994;28;20644;-65
2022/05/25 11:12:26;;;;;;;1.15;0.70;;;;;;;22.73;31.38;96621.50;2085072;28;20235;-65
2022/05/25 11:13:43;;;;;;;7.38;4.93;;;;;;;22.67;31.29;96621.09;2078099;28;20204;-65
2022/05/25 11:15:13;;;;;;;2.28;1.60;;;;;;;22.46;32.22;96617.81;2086598;28;20818;-64
2022/05/25 11:16:26;;;;;;;6.25;4.40;;;;;;;22.43;31.50;96623.44;2082610;28;20228;-63
2022/05/25 11:17:46;;;;;;;2.25;1.02;;;;;;;22.99;31.42;96619.88;2079733;28;20251;-64
2022/05/25 11:18:55;;;;;;;3.28;0.80;;;;;;;22.91;29.49;96617.09;2086014;28;20193;-63
2022/05/25 11:20:24;;;;;;;2.00;0.68;;;;;;;21.97;31.09;96615.19;2081438;28;20251;-63
2022/05/25 11:22:11;;;;;;;7.03;0.98;;;;;;;22.09;32.15;96618.53;2084121;28;20201;-63
2022/05/25 11:23:15;;;;;;;2.03;0.80;;;;;;;22.89;31.38;96623.56;2082065;28;20648;-65
2022/05/25 11:24:49;;;;;;;2.95;0.80;;;;;;;22.53;31.84;96621.56;2089320;28;20255;-65
2022/05/25 11:26:22;;;;;;;3.15;0.90;;;;;;;23.19;30.55;96621.66;2091873;28;20197;-64
2022/05/25 11:28:05;;;;;;;4.72;0.80;;;;;;;23.23;31.33;96618.53;2085203;28;20281;-64
2022/05/25 11:29:37;;;;;;;4.28;0.80;;;;;;;24.29;30.34;96617.91;2087040;28;20201;-64
2022/05/25 11:31:10;;;;;;;2.40;0.60;;;;;;;24.66;30.13;96618.69;2086937;28;20204;-64
2022/05/25 11:32:18;;;;;;;1.27;0.68;;;;;;;24.82;28.96;96612.59;2073769;28;20245;-64
2022/05/25 11:33:23;;;;;;;1.65;0.80;;;;;;;23.96;28.30;96606.16;2074564;28;20201;-64
2022/05/25 11:35:12;;;;;;;2.95;1.02;;;;;;;23.00;30.79;96618.06;2075057;28;20241;-64
2022/05/25 11:36:29;;;;;;;2.55;0.98;;;;;;;23.09;29.78;96616.34;2072834;28;20213;-64
2022/05/25 11:37:41;;;;;;;1.60;0.63;;;;;;;23.86;30.28;96608.88;2073012;28;20201;-64
2022/05/25 11:39:32;;;;;;;2.03;0.70;;;;;;;23.24;29.83;96622.88;2074534;28;20198;-63
2022/05/25 11:40:46;;;;;;;1.95;0.80;;;;;;;23.33;30.08;96617.66;2048520;28;20204;-63
2022/05/25 11:42:17;;;;;;;1.80;0.68;;;;;;;23.34;29.00;96612.16;2076292;28;20711;-63
2022/05/25 11:43:40;;;;;;;2.65;0.70;;;;;;;23.22;29.92;96619.50;2075655;28;20202;-63
2022/05/25 11:44:50;;;;;;;1.45;0.60;;;;;;;22.94;30.12;96611.50;2078332;28;20194;-63
2022/05/25 11:46:34;;;;;;;1.80;0.70;;;;;;;22.89;30.08;96612.91;2075431;28;20195;-63
2022/05/25 11:48:15;;;;;;;2.13;0.80;;;;;;;23.63;29.56;96609.31;2072752;28;20221;-63
2022/05/25 11:49:50;;;;;;;1.58;0.50;;;;;;;22.86;29.87;96616.72;2072287;28;20696;-63
2022/05/25 11:51:09;;;;;;;6.38;0.80;;;;;;;22.93;29.47;96615.16;2075136;28;20194;-63
2022/05/25 11:52:25;;;;;;;1.20;0.60;;;;;;;22.42;29.53;96619.09;2073370;28;20221;-64
2022/05/25 11:53:46;;;;;;;1.33;0.80;;;;;;;22.71;30.34;96623.50;2073775;28;20230;-64
2022/05/25 11:55:20;;;;;;;0.93;0.60;;;;;;;22.28;30.60;96617.66;2071267;28;20198;-63
2022/05/25 11:56:48;;;;;;;2.65;0.70;;;;;;;22.94;30.72;96614.16;2075350;28;20203;-64
2022/05/25 11:57:58;;;;;;;4.30;0.77;;;;;;;22.66;32.18;96622.13;2074737;28;20202;-64
2022/05/25 11:59:21;;;;;;;1.42;0.65;;;;;;;23.00;31.09;96624.19;2075632;28;20241;-64
2022/05/25 12:00:47;;;;;;;1.52;0.63;;;;;;;22.64;29.78;96624.06;2075941;28;20198;-64
2022/05/25 12:02:13;;;;;;;1.45;0.70;;;;;;;23.46;29.40;96605.66;2077550;28;20726;-64
2022/05/25 12:03:45;;;;;;;1.27;0.60;;;;;;;23.31;29.98;96607.13;2074667;28;20205;-63
2022/05/25 12:05:18;;;;;;;2.75;0.77;;;;;;;23.19;30.64;96608.34;2074037;28;21125;-63
2022/05/25 12:06:50;;;;;;;3.63;1.08;;;;;;;23.27;31.21;96621.72;2076642;28;20546;-63
2022/05/25 12:08:24;;;;;;;5.13;3.25;;;;;;;23.25;29.64;96616.56;2075636;28;20205;-65
2022/05/25 12:09:44;;;;;;;3.50;1.98;;;;;;;22.76;29.71;96576.81;2077142;28;20194;-64
2022/05/25 12:11:04;;;;;;;1.83;0.70;;;;;;;22.72;30.43;96614.53;2072483;28;20206;-65
2022/05/25 12:12:07;;;;;;;1.00;0.60;;;;;;;23.10;30.21;96613.53;2070716;28;20233;-65
2022/05/25 12:13:38;;;;;;;4.38;1.10;;;;;;;23.33;29.93;96622.97;2083238;28;20201;-65
2022/05/25 12:14:45;;;;;;;1.17;0.70;;;;;;;23.43;28.53;96621.91;2078818;28;20778;-65
2022/05/25 12:16:08;;;;;;;1.52;0.70;;;;;;;23.27;29.52;96619.94;2077228;28;20206;-65
2022/05/25 12:17:40;;;;;;;3.17;0.60;;;;;;;23.63;29.81;96617.31;2074071;28;20222;-65
2022/05/25 12:18:50;;;;;;;1.27;0.50;;;;;;;24.03;28.77;96617.03;2073681;28;20198;-65
2022/05/25 12:19:56;;;;;;;2.28;0.70;;;;;;;23.83;28.83;96611.00;2070783;28;20706;-65
2022/05/25 12:21:26;;;;;;;2.05;0.57;;;;;;;24.78;28.50;96614.78;2075803;28;20207;-64
2022/05/25 12:22:34;;;;;;;1.80;0.60;;;;;;;24.88;27.49;96606.63;2058394;28;20231;-65
2022/05/25 12:23:38;;;;;;;2.08;0.70;;;;;;;24.87;27.71;96609.47;2074155;28;20210;-65
2022/05/25 12:24:43;;;;;;;1.25;0.60;;;;;;;25.10;28.01;96609.72;2072635;28;20601;-64
2022/05/25 12:25:53;;;;;;;5.45;0.55;;;;;;;24.88;27.67;96617.31;2072268;28;20198;-65
2022/05/25 12:26:56;;;;;;;6.65;0.70;;;;;;;24.24;27.09;96611.34;2067486;28;20218;-64
2022/05/25 12:28:00;;;;;;;4.50;0.73;;;;;;;24.41;28.48;96607.81;2085538;28;20197;-64
2022/05/25 12:29:14;;;;;;;2.35;1.00;;;;;;;25.10;28.56;96610.56;2075318;28;20205;-65
2022/05/25 12:30:19;;;;;;;1.15;0.60;;;;;;;24.85;28.46;96614.09;2075301;28;20343;-65
2022/05/25 12:31:26;;;;;;;1.30;0.90;;;;;;;24.70;29.18;96613.88;2065906;28;20203;-65
2022/05/25 12:32:28;;;;;;;2.75;0.90;;;;;;;25.20;28.83;96615.78;2084366;28;20374;-65
2022/05/25 12:33:31;;;;;;;4.80;0.80;;;;;;;24.91;28.38;96619.66;2083283;28;20218;-65
2022/05/25 12:34:37;;;;;;;4.53;0.70;;;;;;;25.70;28.16;96613.25;2076949;28;20653;-65
2022/05/25 12:35:40;;;;;;;1.02;0.55;;;;;;;25.70;27.46;96607.91;2077026;28;20201;-65
2022/05/25 12:36:42;;;;;;;9.75;0.90;;;;;;;25.36;28.07;96615.03;2071822;28;20219;-65
2022/05/25 12:37:47;;;;;;;5.28;0.60;;;;;;;25.61;27.72;96615.13;2072076;28;20210;-65
2022/05/25 12:38:49;;;;;;;3.53;0.80;;;;;;;25.87;27.97;96619.50;2073100;28;20201;-65
2022/05/25 12:39:50;;;;;;;3.17;0.70;;;;;;;25.77;28.31;96626.84;2073740;28;20562;-65
2022/05/25 12:40:53;;;;;;;1.17;0.57;;;;;;;25.70;27.79;96615.94;2066186;28;20205;-65
2022/05/25 12:42:23;;;;;;;1.77;0.63;;;;;;;25.31;28.45;96622.66;2059641;28;20225;-65
2022/05/25 12:43:40;;;;;;;1.90;0.75;;;;;;;24.39;29.67;96614.31;2081135;28;20207;-65
2022/05/25 12:48:56;;;;;;;2.38;0.70;;;;;;;25.15;29.21;96610.06;2074918;28;20340;-66
2022/05/25 12:49:59;;;;;;;2.33;0.80;;;;;;;25.15;28.51;96607.41;2077266;28;20197;-65
2022/05/25 12:51:34;;;;;;;5.28;0.70;;;;;;;23.81;29.73;96611.97;2075371;28;20204;-65
2022/05/25 12:52:41;;;;;;;4.07;1.00;;;;;;;24.45;29.72;96616.34;2075320;28;20221;-65
2022/05/25 12:53:54;;;;;;;2.67;0.63;;;;;;;24.99;29.25;96612.69;2075424;28;20227;-65
2022/05/25 12:55:07;;;;;;;2.55;0.73;;;;;;;25.29;29.27;96615.81;2076207;28;20207;-65
2022/05/25 12:56:16;;;;;;;3.58;0.90;;;;;;;25.14;28.92;96613.78;2077369;28;20211;-65
2022/05/25 12:57:23;;;;;;;4.57;0.75;;;;;;;24.83;29.15;96611.59;2075681;28;20224;-65
2022/05/25 12:58:42;;;;;;;1.00;0.60;;;;;;;24.80;29.40;96611.94;2076584;28;20204;-65
2022/05/25 12:59:43;;;;;;;1.17;0.57;;;;;;;25.32;28.20;96613.66;2072141;28;20216;-65
2022/05/25 13:01:08;;;;;;;3.45;0.70;;;;;;;26.03;27.85;96600.78;2075617;28;20200;-64
2022/05/25 13:02:19;;;;;;;1.60;0.80;;;;;;;25.88;27.96;96605.94;2069184;28;20224;-65
2022/05/25 13:03:37;;;;;;;4.60;0.60;;;;;;;25.98;27.59;96610.28;2084010;28;20294;-65
2022/05/25 13:04:50;;;;;;;2.70;0.82;;;;;;;26.04;28.35;96609.63;2072173;28;20211;-67
2022/05/25 13:05:55;;;;;;;4.15;0.90;;;;;;;26.31;28.00;96608.50;2070185;28;20197;-65
2022/05/25 13:06:58;;;;;;;3.70;2.63;;;;;;;26.64;27.69;96608.44;2071422;28;20601;-65
2022/05/25 13:07:59;;;;;;;2.20;1.27;;;;;;;26.03;28.05;96597.25;2085136;28;20203;-65
2022/05/25 13:09:28;;;;;;;4.20;1.80;;;;;;;25.89;28.52;96598.75;2074519;28;20198;-63
2022/05/25 13:10:30;;;;;;;9.80;6.00;;;;;;;25.13;28.89;96595.22;2075410;28;20191;-64
2022/05/25 13:11:47;;;;;;;1.20;0.75;;;;;;;24.49;29.52;96596.34;2067641;28;20665;-64
2022/05/25 13:12:52;;;;;;;1.40;0.88;;;;;;;24.80;28.95;96603.06;2082797;28;20213;-64
2022/05/25 13:13:54;;;;;;;1.92;0.70;;;;;;;25.59;29.26;96601.88;2077020;28;20198;-64
2022/05/25 13:14:56;;;;;;;3.28;0.70;;;;;;;25.19;28.71;96599.91;2070164;28;20201;-63
2022/05/25 13:15:58;;;;;;;3.83;0.70;;;;;;;25.92;28.01;96593.91;2067153;28;20274;-64
2022/05/25 13:17:03;;;;;;;1.65;0.70;;;;;;;25.62;28.51;96600.72;2076918;28;20224;-63
2022/05/25 13:18:45;;;;;;;1.92;0.70;;;;;;;25.38;28.75;96599.69;2074044;28;20292;-63
2022/05/25 13:19:47;;;;;;;3.50;0.65;;;;;;;25.88;29.01;96605.94;2072926;28;20214;-64
2022/05/25 13:20:57;;;;;;;2.35;0.90;;;;;;;25.20;27.93;96594.41;2078530;28;20210;-63
2022/05/25 13:22:09;;;;;;;2.95;0.80;;;;;;;25.29;28.13;96599.78;2067202;28;20577;-64
2022/05/25 13:23:10;;;;;;;4.20;0.70;;;;;;;26.16;28.04;96599.47;2078177;28;20204;-61
2022/05/25 13:24:20;;;;;;;3.38;0.80;;;;;;;26.60;27.63;96600.91;2073812;28;20201;-61
2022/05/25 13:25:40;;;;;;;1.35;0.70;;;;;;;26.50;27.88;96599.28;2073916;28;20216;-61
2022/05/25 13:26:53;;;;;;;2.75;0.77;;;;;;;26.34;28.63;96612.69;2067064;28;20234;-61
2022/05/25 13:27:58;;;;;;;3.55;0.73;;;;;;;25.70;28.33;96602.56;2081509;28;20732;-61
2022/05/25 13:29:11;;;;;;;3.42;1.05;;;;;;;25.37;28.45;96603.34;2079205;28;20201;-62
2022/05/25 13:30:44;;;;;;;3.70;0.75;;;;;;;25.65;28.81;96605.75;2073187;28;20684;-61
2022/05/25 13:31:56;;;;;;;2.05;0.80;;;;;;;25.76;29.18;96607.25;2068711;28;20395;-61
2022/05/25 13:33:12;;;;;;;1.42;0.70;;;;;;;25.81;29.28;96609.44;2082344;28;20201;-61
2022/05/25 13:34:17;;;;;;;3.13;0.70;;;;;;;24.90;29.54;96604.63;2072264;28;20657;-61
2022/05/25 13:35:18;;;;;;;3.28;0.80;;;;;;;24.40;30.54;96606.13;2072506;28;20606;-61
2022/05/25 13:36:23;;;;;;;3.20;0.70;;;;;;;24.12;30.90;96619.63;2072448;28;20699;-61
2022/05/25 13:37:25;;;;;;;1.75;0.70;;;;;;;23.99;31.81;96613.00;2073638;28;20573;-61
2022/05/25 13:38:45;;;;;;;3.45;0.90;;;;;;;23.77;31.05;96607.13;2075293;28;20210;-61
2022/05/25 13:39:47;;;;;;;6.13;0.80;;;;;;;23.08;32.22;96582.69;2076776;28;20207;-61
2022/05/25 13:40:55;;;;;;;2.85;0.80;;;;;;;23.45;32.58;96576.47;2073717;28;20564;-60
2022/05/25 13:42:04;;;;;;;3.05;0.80;;;;;;;23.09;32.86;96603.84;2053310;28;20228;-60
2022/05/25 13:43:11;;;;;;;2.30;1.02;;;;;;;23.25;32.91;96616.56;2069413;28;20744;-60
2022/05/25 13:44:17;;;;;;;6.85;0.70;;;;;;;22.90;33.02;96602.13;2078172;28;20695;-60
2022/05/25 13:45:23;;;;;;;2.88;0.95;;;;;;;22.72;33.67;96610.03;2078659;28;20221;-60
2022/05/25 13:46:28;;;;;;;2.13;0.70;;;;;;;22.63;33.10;96606.41;2062715;28;20724;-60
2022/05/25 13:47:30;;;;;;;4.13;0.80;;;;;;;22.98;33.16;96607.56;2082743;28;20197;-60
2022/05/25 13:48:32;;;;;;;8.10;0.80;;;;;;;23.47;32.52;96612.63;2080010;28;20206;-60
2022/05/25 13:49:38;;;;;;;2.15;0.80;;;;;;;24.19;31.68;96608.31;2074428;28;20203;-60
2022/05/25 13:50:43;;;;;;;2.03;0.70;;;;;;;24.07;30.56;96597.88;2074790;28;20198;-60
2022/05/25 13:51:44;;;;;;;3.45;0.90;;;;;;;23.44;31.70;96604.94;2063924;28;20225;-60
2022/05/25 13:52:45;;;;;;;2.55;0.60;;;;;;;22.99;32.97;96601.25;2074130;28;20194;-60
2022/05/25 13:53:48;;;;;;;7.50;0.90;;;;;;;22.78;32.49;96601.47;2079721;28;20205;-60
2022/05/25 13:55:04;;;;;;;5.60;0.80;;;;;;;22.66;32.75;96600.81;2075857;28;20252;-60
2022/05/25 13:56:12;;;;;;;1.75;0.70;;;;;;;22.50;32.97;96605.91;2075995;28;20202;-60
2022/05/25 13:57:40;;;;;;;4.53;1.42;;;;;;;22.48;32.95;96610.53;2076240;28;20228;-60
2022/05/25 13:58:46;;;;;;;3.60;0.98;;;;;;;22.70;33.06;96608.50;2072060;28;20266;-60
2022/05/25 13:59:47;;;;;;;1.00;0.70;;;;;;;22.61;32.98;96600.41;2076412;28;20213;-60
2022/05/25 14:00:50;;;;;;;2.60;1.60;;;;;;;22.66;33.02;96608.81;2077342;28;20796;-60
2022/05/25 14:02:25;;;;;;;0.90;0.70;;;;;;;22.54;33.52;96609.97;2072352;28;20273;-60
2022/05/25 14:03:29;;;;;;;1.70;0.70;;;;;;;22.26;33.92;96607.19;2080598;28;20596;-60
2022/05/25 14:04:32;;;;;;;3.22;0.75;;;;;;;22.61;33.56;96597.75;2068800;28;20199;-60
2022/05/25 14:05:49;;;;;;;2.65;0.80;;;;;;;22.41;33.82;96606.75;2077146;28;20202;-60
2022/05/25 14:06:51;;;;;;;1.65;0.77;;;;;;;21.88;33.73;96603.59;2065822;28;20228;-60
2022/05/25 14:08:03;;;;;;;2.10;0.80;;;;;;;22.14;33.88;96603.84;2079373;28;20197;-60
2022/05/25 14:11:51;;;;;;;5.40;0.80;;;;;;;21.91;34.69;96602.47;2067972;28;20228;-60
2022/05/25 14:12:52;;;;;;;4.88;1.00;;;;;;;21.80;35.04;96600.78;2080581;28;20724;-60
2022/05/25 14:13:53;;;;;;;1.73;0.73;;;;;;;21.89;34.52;96588.47;2078046;28;20818;-60
2022/05/25 14:14:56;;;;;;;2.67;0.70;;;;;;;22.68;33.71;96598.00;2075336;28;20198;-60
2022/05/25 14:15:57;;;;;;;2.65;0.80;;;;;;;22.04;34.47;96602.16;2073885;28;20198;-60
2022/05/25 14:17:24;;;;;;;2.17;0.90;;;;;;;22.77;33.52;96601.63;2072668;28;20637;-60
2022/05/25 14:18:28;;;;;;;1.90;1.13;;;;;;;23.27;32.78;96597.75;2072047;28;20554;-60
2022/05/25 14:19:45;;;;;;;11.13;1.25;;;;;;;23.27;33.38;96589.78;2070257;28;20194;-60
2022/05/25 14:20:47;;;;;;;3.28;0.98;;;;;;;23.06;33.12;96593.50;2076276;28;20341;-60
2022/05/25 14:21:51;;;;;;;5.00;1.13;;;;;;;23.29;32.88;96599.28;2069030;28;20216;-60
2022/05/25 14:22:53;;;;;;;5.15;1.00;;;;;;;22.75;33.21;96601.75;2082746;28;20205;-60
2022/05/25 14:23:56;;;;;;;4.15;0.80;;;;;;;22.65;33.83;96603.59;2077061;28;20198;-60
2022/05/25 14:25:09;;;;;;;4.30;0.70;;;;;;;22.21;34.26;96598.78;2073844;28;20209;-60
2022/05/25 14:26:11;;;;;;;3.28;0.80;;;;;;;22.39;34.26;96604.25;2073697;28;20558;-60
2022/05/25 14:27:18;;;;;;;4.30;0.82;;;;;;;22.90;33.35;96603.94;2069359;28;20217;-60
2022/05/25 14:28:31;;;;;;;1.63;0.60;;;;;;;22.55;33.62;96597.47;2082325;28;20236;-60
2022/05/25 14:29:38;;;;;;;1.70;0.60;;;;;;;22.38;33.52;96596.41;2077930;28;20225;-61
2022/05/25 14:30:40;;;;;;;1.00;0.60;;;;;;;22.67;33.68;96589.16;2076230;28;20198;-60
2022/05/25 14:31:45;;;;;;;2.85;0.80;;;;;;;22.47;34.01;96592.88;2073170;28;20229;-60
2022/05/25 14:33:08;;;;;;;1.77;0.80;;;;;;;22.42;33.70;96600.47;2073764;28;20202;-61
2022/05/25 14:34:15;;;;;;;5.93;2.33;;;;;;;22.28;34.23;96594.59;2073337;28;20210;-59
2022/05/25 14:35:18;;;;;;;2.97;1.00;;;;;;;22.01;34.64;96588.16;2074349;28;20255;-59
2022/05/25 14:36:21;;;;;;;4.47;1.10;;;;;;;22.61;33.63;96583.59;2067860;28;20210;-59
2022/05/25 14:37:33;;;;;;;4.10;1.02;;;;;;;22.92;33.45;96586.84;2072686;28;20218;-59
2022/05/25 14:38:41;;;;;;;10.60;1.00;;;;;;;22.47;33.86;96588.41;2074271;28;20241;-59
2022/05/25 14:40:08;;;;;;;4.18;0.90;;;;;;;23.44;33.29;96588.97;2074978;28;20229;-60
2022/05/25 14:41:28;;;;;;;4.60;0.90;;;;;;;24.04;32.60;96592.88;2072998;28;20215;-62
2022/05/25 14:42:30;;;;;;;1.50;0.70;;;;;;;24.72;31.29;96590.50;2075722;28;20685;-63
2022/05/25 14:43:42;;;;;;;1.70;0.60;;;;;;;24.47;31.17;96587.69;2074149;28;20202;-62
2022/05/25 14:44:53;;;;;;;4.85;0.80;;;;;;;24.74;31.20;96584.03;2073252;28;20205;-62
2022/05/25 14:46:15;;;;;;;1.55;0.70;;;;;;;24.44;31.96;96596.00;2082542;28;20205;-63
2022/05/25 14:47:31;;;;;;;3.75;0.80;;;;;;;23.45;31.51;96587.97;2085861;28;20221;-62
2022/05/25 14:48:32;;;;;;;2.42;0.93;;;;;;;23.85;32.51;96593.03;2087563;28;20190;-62
2022/05/25 14:49:34;;;;;;;7.22;0.80;;;;;;;23.55;32.57;96576.41;2082562;28;20232;-62
2022/05/25 14:50:57;;;;;;;2.15;0.70;;;;;;;23.58;32.35;96590.28;2082022;28;20205;-62
2022/05/25 14:52:08;;;;;;;1.20;0.80;;;;;;;23.45;32.52;96587.13;2084998;28;20224;-62
2022/05/25 14:53:11;;;;;;;3.47;1.10;;;;;;;23.60;32.47;96590.13;2083547;28;20676;-62
2022/05/25 14:54:24;;;;;;;3.67;0.63;;;;;;;23.75;32.77;96583.25;2083022;28;20533;-62
2022/05/25 14:55:47;;;;;;;1.55;0.80;;;;;;;24.27;31.59;96590.53;2086438;28;20197;-62
2022/05/25 14:56:49;;;;;;;1.55;0.70;;;;;;;23.99;30.95;96591.69;2084121;28;20220;-63
2022/05/25 14:58:33;;;;;;;3.50;0.90;;;;;;;24.53;30.98;96589.72;2100134;28;20261;-62
2022/05/25 14:59:37;;;;;;;4.15;1.05;;;;;;;23.88;31.55;96592.72;2071507;28;20581;-62
2022/05/25 15:00:45;;;;;;;2.15;0.90;;;;;;;23.68;31.50;96584.03;2079515;28;20201;-62
2022/05/25 15:01:55;;;;;;;3.17;0.77;;;;;;;23.75;31.32;96593.09;2081769;28;20234;-62
2022/05/25 15:03:00;;;;;;;3.97;0.95;;;;;;;23.86;31.46;96584.88;2100601;28;20690;-62
2022/05/25 15:04:09;;;;;;;2.78;1.00;;;;;;;24.09;31.80;96587.09;2089371;28;20548;-62
2022/05/25 15:05:26;;;;;;;3.72;1.00;;;;;;;24.25;31.55;96583.69;2085833;28;20280;-62
2022/05/25 15:06:40;;;;;;;3.70;0.80;;;;;;;23.53;32.31;96589.88;2077941;28;20204;-62
2022/05/25 15:07:54;;;;;;;1.17;0.80;;;;;;;23.96;31.82;96593.66;2103967;28;20215;-62
2022/05/25 15:08:55;;;;;;;1.98;0.80;;;;;;;23.66;31.69;96604.69;2089322;28;20584;-62
2022/05/25 15:10:09;;;;;;;2.28;0.68;;;;;;;23.54;32.47;96596.03;2083420;28;20204;-62
2022/05/25 15:11:29;;;;;;;3.90;0.70;;;;;;;23.69;32.57;96591.84;2084615;28;20702;-63
2022/05/25 15:12:43;;;;;;;3.88;1.00;;;;;;;24.04;32.00;96592.06;2076262;28;20221;-62
2022/05/25 15:18:30;;;;;;;3.88;0.90;;;;;;;23.56;32.14;96597.56;2081845;28;20205;-62
2022/05/25 15:19:34;;;;;;;2.03;0.90;;;;;;;23.68;32.26;96592.00;2074303;28;20204;-62
2022/05/25 15:20:46;;;;;;;2.45;0.70;;;;;;;24.05;32.51;96594.56;2076885;28;20198;-62
2022/05/25 15:21:49;;;;;;;2.45;0.80;;;;;;;23.83;32.27;96597.66;2073392;28;20708;-62
2022/05/25 15:23:26;;;;;;;3.15;0.80;;;;;;;24.32;32.43;96590.09;2089962;28;20272;-62
2022/05/25 15:24:28;;;;;;;5.47;0.93;;;;;;;24.26;32.39;96588.03;2081844;28;20205;-62
2022/05/25 15:25:45;;;;;;;0.98;0.60;;;;;;;24.52;32.04;96593.38;2081532;28;20205;-62
2022/05/25 15:26:59;;;;;;;3.83;0.95;;;;;;;23.93;31.89;96591.31;2073987;28;20244;-62
2022/05/25 15:28:00;;;;;;;3.33;0.70;;;;;;;24.16;31.35;96598.78;2090489;28;20193;-62
2022/05/25 15:29:26;;;;;;;7.25;0.70;;;;;;;24.17;30.74;96600.47;2086680;28;20194;-62
2022/05/25 15:30:49;;;;;;;2.55;1.15;;;;;;;23.87;30.75;96602.53;2081395;28;20238;-62
2022/05/25 15:31:52;;;;;;;4.90;0.82;;;;;;;23.90;30.97;96598.72;2084457;28;20225;-62
2022/05/25 15:32:54;;;;;;;2.10;0.70;;;;;;;23.78;31.18;96606.09;2083754;28;20201;-62
2022/05/25 15:33:55;;;;;;;2.20;0.70;;;;;;;23.87;30.95;96602.53;2081297;28;20272;-62
2022/05/25 15:35:06;;;;;;;2.40;0.80;;;;;;;23.78;31.52;96603.44;2082512;28;20660;-62
2022/05/25 15:36:18;;;;;;;1.95;0.70;;;;;;;23.53;31.62;96611.22;2083081;28;20202;-62
2022/05/25 15:37:27;;;;;;;1.73;0.90;;;;;;;23.33;31.61;96604.34;2082349;28;20232;-62
2022/05/25 15:38:30;;;;;;;3.72;1.02;;;;;;;23.05;32.93;96613.13;2083605;28;20225;-62
2022/05/25 15:39:31;;;;;;;2.42;0.80;;;;;;;23.44;32.84;96602.28;2085345;28;20198;-62
2022/05/25 15:40:38;;;;;;;1.50;0.80;;;;;;;23.58;33.13;96600.94;2082820;28;20198;-61
2022/05/25 15:41:40;;;;;;;3.00;0.70;;;;;;;23.57;32.44;96606.41;2075265;28;20231;-62
2022/05/25 15:42:42;;;;;;;4.50;0.95;;;;;;;23.62;31.77;96604.13;2085811;28;20653;-62